Latest Coastal Weather Observations for McCluer Island

IDD60701

Issued at 6:11 am CST Sunday 1 May 2016 (issued every 10 minutes, with the page automatically refreshed every 10 minutes)

About coastal observations | Map of coastal stations | Coastal observations for NT | Marine services | Other Formats
Station Details ID: 014274 Name: MCCLUER ISLAND Lat: -11.05 Lon: 132.98 Height: 1.4 m
Data from the previous 72 hours. | See also: Recent months at McCluer Island
Date/Time
CST
Temp

°C
Wind Pressure Rain
since 9am
mm
Weather Cloud Vis
km
Sea
Height
m
Swell
Dir
 
Speed
knots
Gust
knots
hPa Trend Height
m
Period
s
Dir
01/06:00am 27.7 SE 9 14 1010.2 - 1.4 - - - - - - -
01/05:30am 27.5 SE 11 14 1009.9 - 1.4 - - - - - - -
01/05:00am 27.4 SE 10 12 1009.6 - 1.4 - - - - - - -
01/04:30am 27.4 SE 8 11 1009.5 - 0.2 - - - - - - -
01/04:00am 27.3 SE 8 11 1009.4 - 0.0 - - - - - - -
01/03:30am 27.4 SE 8 11 1009.3 - 0.0 - - - - - - -
01/03:00am 27.5 SE 12 21 1009.4 - 0.0 - - - - - - -
01/02:40am 28.2 E 16 20 1009.2 - 0.0 - - - - - - -
01/02:30am 27.9 SE 8 9 1009.3 - 0.0 - - - - - - -
01/02:00am 27.7 SE 10 13 1009.4 - 0.0 - - - - - - -
01/01:30am 29.5 ESE 9 12 1009.9 - 0.0 - - - - - - -
01/01:00am 29.8 E 13 16 1010.0 - 0.0 - - - - - - -
01/12:30am 29.6 E 14 16 1010.4 - 0.0 - - - - - - -
01/12:00am 29.9 E 12 15 1010.5 - 0.0 - - - - - - -
 
Date/Time
CST
Temp

°C
Wind Pressure Rain
since 9am
mm
Weather Cloud Vis
km
Sea
Height
m
Swell
Dir
 
Speed
knots
Gust
knots
hPa Trend Height
m
Period
s
Dir
30/11:30pm 29.7 E 12 14 1010.7 - 0.0 - - - - - - -
30/11:00pm 29.7 E 11 14 1011.0 - 0.0 - - - - - - -
30/10:30pm 29.7 E 12 15 1011.1 - 0.0 - - - - - - -
30/10:00pm 29.9 E 12 14 1011.0 - 0.0 - - - - - - -
30/09:30pm 29.9 E 11 12 1010.8 - 0.0 - - - - - - -
30/09:00pm 30.0 E 12 14 1010.6 - 0.0 - - - - - - -
30/08:30pm 29.9 E 12 14 1010.2 - 0.0 - - - - - - -
30/08:00pm 29.9 E 14 17 1009.9 - 0.0 - - - - - - -
30/07:30pm 29.9 E 14 16 1009.6 - 0.0 - - - - - - -
30/07:00pm 29.7 E 12 15 1009.3 - 0.0 - - - - - - -
30/06:30pm 29.7 ESE 13 15 1009.0 - 0.0 - - - - - - -
30/06:00pm 29.9 E 13 15 1009.0 - 0.0 - - - - - - -
30/05:30pm 30.1 E 11 14 1008.4 - 0.0 - - - - - - -
30/05:00pm 30.3 E 10 12 1008.2 - 0.0 - - - - - - -
30/04:30pm 30.7 ESE 9 12 1007.8 - 0.0 - - - - - - -
30/04:00pm 30.7 E 10 11 1007.6 - 0.0 - - - - - - -
30/03:30pm 30.8 E 11 13 1008.2 - 0.0 - - - - - - -
30/03:00pm 30.5 E 11 14 1008.6 - 0.0 - - - - - - -
30/02:30pm 30.6 E 11 14 1008.8 - 0.0 - - - - - - -
30/02:00pm 30.2 E 11 13 1009.2 - 0.0 - - - - - - -
30/01:30pm 31.1 ESE 13 18 1009.6 - 0.0 - - - - - - -
30/01:00pm 31.4 ESE 12 18 1010.0 - 0.0 - - - - - - -
30/12:30pm 31.3 ESE 11 18 1010.5 - 0.0 - - - - - - -
30/12:00pm 31.6 SE 11 15 1011.0 - 0.0 - - - - - - -
30/11:30am 32.2 SE 10 16 1011.4 - 0.0 - - - - - - -
30/11:00am 32.0 ESE 12 15 1011.8 - 0.0 - - - - - - -
30/10:30am 31.5 ESE 10 14 1012.1 - 0.0 - - - - - - -
30/10:00am 31.1 ESE 10 14 1012.4 - 0.0 - - - - - - -
30/09:30am 31.3 ESE 10 14 1012.4 - 0.0 - - - - - - -
30/09:00am 30.6 ESE 7 11 1012.3 - 0.0 - - - - - - -
30/08:30am 28.9 ESE 7 9 1012.1 - 0.0 - - - - - - -
30/08:00am 28.7 SE 8 10 1012.1 - 0.0 - - - - - - -
30/07:30am 28.8 ESE 8 11 1011.6 - 0.0 - - - - - - -
30/07:00am 27.8 SE 7 9 1011.3 - 0.0 - - - - - - -
30/06:30am 26.9 SE 6 8 1011.1 - 0.0 - - - - - - -
30/06:00am 26.8 SSE 12 19 1010.9 - 0.0 - - - - - - -
30/05:50am 27.5 SSE 15 20 1010.7 - 0.0 - - - - - - -
30/05:30am 29.1 E 8 9 1010.5 - 0.0 - - - - - - -
30/05:00am 29.3 E 9 11 1010.4 - 0.0 - - - - - - -
30/04:30am 28.6 ESE 5 6 1010.1 - 0.0 - - - - - - -
30/04:00am 29.2 E 8 9 1009.9 - 0.0 - - - - - - -
30/03:30am 29.4 E 9 11 1010.0 - 0.0 - - - - - - -
30/03:00am 29.4 E 9 11 1009.9 - 0.0 - - - - - - -
30/02:30am 29.4 E 9 11 1010.0 - 0.0 - - - - - - -
30/02:00am 29.5 E 9 11 1010.1 - 0.0 - - - - - - -
30/01:30am 29.4 E 8 9 1010.6 - 0.0 - - - - - - -
30/01:00am 28.0 ESE 6 9 1010.9 - 0.0 - - - - - - -
30/12:30am 27.8 ESE 6 7 1011.2 - 0.0 - - - - - - -
30/12:00am 28.1 SSE 6 7 1011.2 - 0.0 - - - - - - -
 
Date/Time
CST
Temp

°C
Wind Pressure Rain
since 9am
mm
Weather Cloud Vis
km
Sea
Height
m
Swell
Dir
 
Speed
knots
Gust
knots
hPa Trend Height
m
Period
s
Dir
29/11:30pm 28.6 S 5 7 1011.1 - 0.0 - - - - - - -
29/11:00pm 29.7 E 8 9 1011.4 - 0.0 - - - - - - -
29/10:30pm 29.7 ENE 9 11 1011.5 - 0.0 - - - - - - -
29/10:00pm 29.7 ENE 9 10 1011.7 - 0.0 - - - - - - -
29/09:30pm 29.9 ENE 10 11 1011.8 - 0.0 - - - - - - -
29/09:00pm 29.8 ENE 11 13 1011.5 - 0.0 - - - - - - -
29/08:30pm 29.8 NE 10 12 1011.4 - 0.0 - - - - - - -
29/08:00pm 29.7 ENE 12 15 1011.2 - 0.0 - - - - - - -
29/07:30pm 30.0 ENE 12 14 1010.8 - 0.0 - - - - - - -
29/07:00pm 30.0 ENE 11 13 1010.2 - 0.0 - - - - - - -
29/06:30pm 30.2 ENE 11 13 1010.0 - 0.0 - - - - - - -
29/06:00pm 30.4 ENE 11 13 1009.6 - 0.0 - - - - - - -
29/05:30pm 30.3 E 10 12 1009.4 - 0.0 - - - - - - -
29/05:00pm 30.3 E 11 12 1009.2 - 0.0 - - - - - - -
29/04:30pm 30.6 E 9 11 1008.9 - 0.0 - - - - - - -
29/04:00pm 30.2 E 8 11 1008.9 - 0.0 - - - - - - -
29/03:30pm 30.6 E 2 10 1009.1 - 0.0 - - - - - - -
29/03:00pm 30.7 E 8 11 1009.2 - 0.0 - - - - - - -
29/02:30pm 30.9 E 10 12 1009.5 - 0.0 - - - - - - -
29/02:00pm 30.7 ESE 11 13 1009.9 - 0.0 - - - - - - -
29/01:30pm 30.5 ESE 11 14 1010.1 - 0.0 - - - - - - -
29/01:00pm 30.6 ESE 12 15 1010.4 - 0.0 - - - - - - -
29/12:30pm 30.6 ESE 12 15 1011.0 - 0.0 - - - - - - -
29/12:00pm 30.9 ESE 13 16 1011.3 - 0.0 - - - - - - -
29/11:30am 30.4 ESE 14 18 1011.6 - 0.0 - - - - - - -
29/11:00am 30.7 E 13 15 1012.2 - 0.0 - - - - - - -
29/10:30am 30.3 ESE 13 15 1012.5 - 0.0 - - - - - - -
29/10:00am 30.3 ESE 13 16 1012.7 - 0.0 - - - - - - -
29/09:30am 30.0 E 13 15 1012.4 - 0.0 - - - - - - -
29/09:00am 30.0 E 15 17 1012.3 - 0.0 - - - - - - -
29/08:30am 29.2 E 16 18 1012.1 - 0.0 - - - - - - -
29/08:00am 29.6 E 13 15 1011.8 - 0.0 - - - - - - -
29/07:30am 29.4 E 11 14 1011.5 - 0.0 - - - - - - -
29/07:00am 29.1 E 12 14 1011.2 - 0.0 - - - - - - -
29/06:30am 29.1 ENE 11 13 1010.8 - 0.0 - - - - - - -
29/06:00am 29.0 ENE 11 12 1010.6 - 0.0 - - - - - - -
29/05:30am 29.0 E 9 11 1010.5 - 0.0 - - - - - - -
29/05:00am 29.1 E 8 10 1010.2 - 0.0 - - - - - - -
29/04:30am 29.1 E 7 8 1010.1 - 0.0 - - - - - - -
29/04:00am 29.1 ENE 7 8 1009.9 - 0.0 - - - - - - -
29/03:30am 29.2 ENE 7 9 1010.1 - 0.0 - - - - - - -
29/03:00am 29.2 ENE 7 9 1010.4 - 0.0 - - - - - - -
29/02:30am 29.5 NE 9 10 1010.4 - 0.0 - - - - - - -
29/02:00am 29.3 ENE 7 9 1010.7 - 0.0 - - - - - - -
29/01:30am 29.4 NE 7 8 1010.8 - 0.0 - - - - - - -
29/01:00am 29.4 NE 7 8 1011.0 - 0.0 - - - - - - -
29/12:30am 29.4 NE 5 7 1011.4 - 0.0 - - - - - - -
29/12:00am 29.6 ENE 7 8 1011.5 - 0.0 - - - - - - -
 
Date/Time
CST
Temp

°C
Wind Pressure Rain
since 9am
mm
Weather Cloud Vis
km
Sea
Height
m
Swell
Dir
 
Speed
knots
Gust
knots
hPa Trend Height
m
Period
s
Dir
28/11:30pm 29.4 ENE 7 9 1011.6 - 0.0 - - - - - - -
28/11:00pm 29.4 NE 6 7 1011.8 - 0.0 - - - - - - -
28/10:30pm 29.6 NE 6 6 1011.7 - 0.0 - - - - - - -
28/10:00pm 29.4 NE 5 7 1011.6 - 0.0 - - - - - - -
28/09:30pm 29.5 ENE 6 7 1011.4 - 0.0 - - - - - - -
28/09:00pm 29.7 NE 7 9 1011.3 - 0.0 - - - - - - -
28/08:30pm 29.9 ENE 7 9 1010.8 - 0.0 - - - - - - -
28/08:00pm 29.7 ENE 9 10 1010.4 - 0.0 - - - - - - -
28/07:30pm 29.7 ENE 9 10 1009.9 - 0.0 - - - - - - -
28/07:00pm 29.9 E 9 10 1009.6 - 0.0 - - - - - - -
28/06:30pm 29.8 E 9 11 1009.3 - 0.0 - - - - - - -
28/06:00pm 30.0 E 11 13 1009.1 - 0.0 - - - - - - -
28/05:30pm 30.2 ENE 10 11 1009.1 - 0.0 - - - - - - -
28/05:00pm 30.5 ENE 10 11 1008.9 - 0.0 - - - - - - -
28/04:30pm 30.6 ENE 10 13 1008.6 - 0.0 - - - - - - -
28/04:00pm 30.6 ENE 10 13 1008.4 - 0.0 - - - - - - -
28/03:30pm 30.5 ENE 12 15 1008.4 - 0.0 - - - - - - -
28/03:00pm 30.7 E 11 12 1008.5 - 0.0 - - - - - - -
28/02:30pm 30.8 E 10 13 1008.7 - 0.0 - - - - - - -
28/02:00pm 30.8 E 11 14 1009.0 - 0.0 - - - - - - -
28/01:30pm 30.6 E 12 14 1009.2 - 0.0 - - - - - - -
28/01:00pm 30.7 E 12 14 1009.9 - 0.0 - - - - - - -
28/12:30pm 30.8 E 14 16 1010.0 - 0.0 - - - - - - -
28/12:00pm 30.5 E 15 17 1010.4 - 0.0 - - - - - - -
28/11:30am 30.6 E 13 16 1010.8 - 0.0 - - - - - - -
28/11:00am 30.4 E 13 16 1011.0 - 0.0 - - - - - - -
28/10:30am 30.3 E 13 16 1011.3 - 0.0 - - - - - - -
28/10:00am 30.5 E 12 15 1011.3 - 0.0 - - - - - - -
28/09:30am 30.0 E 14 17 1010.9 - 0.0 - - - - - - -
28/09:00am 29.7 E 15 18 1010.7 - 6.8 - - - - - - -
28/08:30am 29.8 E 16 18 1010.5 - 6.8 - - - - - - -
28/08:00am 29.6 E 16 19 1010.1 - 6.8 - - - - - - -
28/07:30am 29.3 E 17 19 1009.9 - 6.8 - - - - - - -
28/07:00am 29.1 E 18 22 1009.4 - 6.8 - - - - - - -
28/06:30am 29.0 E 19 22 1008.8 - 6.8 - - - - - - -

Other Formats:

Comma delimited format used in spreadsheet applications
http://www.bom.gov.au/fwo/IDD60701/IDD60701.94135.axf

JavaScript Object Notation format (JSON) in row-major order
http://www.bom.gov.au/fwo/IDD60701/IDD60701.94135.json